createdAt,value
2018-07-01T00:00:11.865Z,10.80
2018-07-01T00:02:40.830Z,10.80
2018-07-01T00:05:10.258Z,10.70
2018-07-01T00:07:38.890Z,10.70
2018-07-01T00:10:08.675Z,10.70
2018-07-01T00:12:37.716Z,10.70
2018-07-01T00:15:07.003Z,10.70
2018-07-01T00:17:35.882Z,10.60
2018-07-01T00:20:05.422Z,10.60
2018-07-01T00:22:34.104Z,10.60
2018-07-01T00:25:02.676Z,10.50
2018-07-01T00:27:31.243Z,10.50
2018-07-01T00:29:59.840Z,10.50
2018-07-01T00:32:28.632Z,10.40
2018-07-01T00:34:57.225Z,10.50
2018-07-01T00:37:25.761Z,10.40
2018-07-01T00:39:54.379Z,10.30
2018-07-01T00:42:22.947Z,10.30
2018-07-01T00:44:51.497Z,10.20
2018-07-01T00:47:20.107Z,10.20
2018-07-01T00:49:48.698Z,10.20
2018-07-01T00:52:17.301Z,10.10
2018-07-01T00:54:45.813Z,10.10
2018-07-01T00:57:14.371Z,10.00
2018-07-01T00:59:42.976Z,10.00
2018-07-01T01:02:11.570Z,9.90
2018-07-01T01:04:40.132Z,9.90
2018-07-01T01:07:08.686Z,9.90
2018-07-01T01:09:37.572Z,9.80
2018-07-01T01:12:06.147Z,9.80
2018-07-01T01:14:34.738Z,9.70
2018-07-01T01:17:03.282Z,9.70
2018-07-01T01:19:31.771Z,9.70
2018-07-01T01:22:00.335Z,9.60
2018-07-01T01:24:28.891Z,9.60
2018-07-01T01:26:57.452Z,9.50
2018-07-01T01:29:25.965Z,9.50
2018-07-01T01:31:54.690Z,9.50
2018-07-01T01:34:23.249Z,9.50
2018-07-01T01:36:51.808Z,9.40
2018-07-01T01:39:24.075Z,9.40
2018-07-01T01:42:02.171Z,9.30
2018-07-01T01:44:37.328Z,9.30
2018-07-01T01:47:12.039Z,9.30
2018-07-01T01:49:47.374Z,9.30
2018-07-01T01:52:21.143Z,9.20
2018-07-01T01:54:57.753Z,9.10
2018-07-01T01:57:33.280Z,9.10
2018-07-01T02:00:12.459Z,9.00
2018-07-01T02:02:48.675Z,9.00
2018-07-01T02:05:22.612Z,9.00
2018-07-01T02:07:56.539Z,8.90
2018-07-01T02:10:25.097Z,8.80
2018-07-01T02:12:53.660Z,8.80
2018-07-01T02:15:25.802Z,8.80
2018-07-01T02:17:55.163Z,8.70
2018-07-01T02:20:26.184Z,8.70
2018-07-01T02:23:28.667Z,8.70
2018-07-01T02:25:58.233Z,8.60
2018-07-01T02:28:26.858Z,8.60
2018-07-01T02:30:55.440Z,8.50
2018-07-01T02:33:23.985Z,8.50
2018-07-01T02:35:52.532Z,8.40
2018-07-01T02:38:21.191Z,8.40
2018-07-01T02:40:49.780Z,8.30
2018-07-01T02:43:18.309Z,8.20
2018-07-01T02:45:46.820Z,8.20
2018-07-01T02:48:15.384Z,8.10
2018-07-01T02:50:43.963Z,8.10
2018-07-01T02:53:12.449Z,8.10
2018-07-01T02:55:40.999Z,8.10
2018-07-01T02:58:09.564Z,8.20
2018-07-01T03:00:38.141Z,8.20
2018-07-01T03:03:06.692Z,8.20
2018-07-01T03:05:35.687Z,8.10
2018-07-01T03:08:04.174Z,8.10
2018-07-01T03:10:32.716Z,8.20
2018-07-01T03:13:01.262Z,8.20
2018-07-01T03:15:29.799Z,8.30
2018-07-01T03:17:58.574Z,8.30
2018-07-01T03:20:27.116Z,8.30
2018-07-01T03:22:55.708Z,8.40
2018-07-01T03:25:24.235Z,8.50
2018-07-01T03:27:52.812Z,8.50
2018-07-01T03:30:21.328Z,8.40
2018-07-01T03:32:49.845Z,8.40
2018-07-01T03:35:18.484Z,8.50
2018-07-01T03:37:47.100Z,8.50
2018-07-01T03:40:16.069Z,8.60
2018-07-01T03:42:44.671Z,8.60
2018-07-01T03:45:13.225Z,8.60
2018-07-01T03:47:41.732Z,8.70
2018-07-01T03:50:10.377Z,8.70
2018-07-01T03:52:39.100Z,8.80
2018-07-01T03:55:07.643Z,8.80
2018-07-01T03:57:36.205Z,8.90
2018-07-01T04:00:06.203Z,8.90
2018-07-01T04:02:34.745Z,9.00
2018-07-01T04:05:03.901Z,9.10
2018-07-01T04:07:32.386Z,9.00
2018-07-01T04:10:00.888Z,9.10
2018-07-01T04:12:29.472Z,9.10
2018-07-01T04:14:58.148Z,9.30
2018-07-01T04:17:27.041Z,9.30
2018-07-01T04:22:23.748Z,9.50
2018-07-01T04:24:52.260Z,9.70
2018-07-01T04:27:21.173Z,9.80
2018-07-01T04:29:50.314Z,10.00
2018-07-01T04:32:18.841Z,10.20
2018-07-01T04:34:47.394Z,10.40
2018-07-01T04:37:15.965Z,10.60
2018-07-01T04:39:44.451Z,10.80
2018-07-01T04:42:13.000Z,11.00
2018-07-01T04:44:41.747Z,11.20
2018-07-01T04:47:10.292Z,11.30
2018-07-01T04:49:38.852Z,11.50
2018-07-01T04:54:35.761Z,11.90
2018-07-01T04:57:04.350Z,12.10
2018-07-01T04:59:32.931Z,12.30
2018-07-01T05:02:01.705Z,12.60
2018-07-01T05:04:30.250Z,12.80
2018-07-01T05:06:58.804Z,12.80
2018-07-01T05:09:27.400Z,12.90
2018-07-01T05:11:55.903Z,13.20
2018-07-01T05:14:25.108Z,13.40
2018-07-01T05:16:54.130Z,13.60
2018-07-01T05:19:22.801Z,13.80
2018-07-01T05:21:51.361Z,14.00
2018-07-01T05:24:19.914Z,14.00
2018-07-01T05:26:48.485Z,14.20
2018-07-01T05:29:17.116Z,14.30
2018-07-01T05:31:46.262Z,14.40
2018-07-01T05:34:15.149Z,14.50
2018-07-01T05:36:43.736Z,14.60
2018-07-01T05:39:13.265Z,14.80
2018-07-01T05:41:41.868Z,14.90
2018-07-01T05:44:10.754Z,15.00
2018-07-01T05:46:39.482Z,15.20
2018-07-01T05:49:09.027Z,15.20
2018-07-01T05:51:37.530Z,15.30
2018-07-01T05:54:06.322Z,15.40
2018-07-01T05:56:34.869Z,15.50
2018-07-01T05:59:03.395Z,15.40
2018-07-01T06:01:32.075Z,15.40
2018-07-01T06:04:00.662Z,15.50
2018-07-01T06:06:29.271Z,15.50
2018-07-01T06:08:57.838Z,15.70
2018-07-01T06:11:26.427Z,15.70
2018-07-01T06:13:55.417Z,15.70
2018-07-01T06:16:23.927Z,15.80
2018-07-01T06:18:52.432Z,15.90
2018-07-01T06:21:20.985Z,15.80
2018-07-01T06:23:49.453Z,15.80
2018-07-01T06:26:18.526Z,15.60
2018-07-01T06:28:47.042Z,15.50
2018-07-01T06:31:15.500Z,15.60
2018-07-01T06:33:43.981Z,15.60
2018-07-01T06:36:12.471Z,15.70
2018-07-01T06:38:41.576Z,15.90
2018-07-01T06:41:10.139Z,16.00
2018-07-01T06:43:38.705Z,16.30
2018-07-01T06:46:07.245Z,16.60
2018-07-01T06:48:35.848Z,16.80
2018-07-01T06:51:04.346Z,16.80
2018-07-01T06:53:32.954Z,16.90
2018-07-01T06:56:01.413Z,16.80
2018-07-01T06:58:29.900Z,16.90
2018-07-01T07:00:58.548Z,17.10
2018-07-01T07:03:27.015Z,17.10
2018-07-01T07:05:55.579Z,17.10
2018-07-01T07:08:24.067Z,17.00
2018-07-01T07:10:52.521Z,17.50
2018-07-01T07:13:20.982Z,17.20
2018-07-01T07:15:49.475Z,17.20
2018-07-01T07:18:17.949Z,17.50
2018-07-01T07:20:46.618Z,17.50
2018-07-01T07:23:15.210Z,18.00
2018-07-01T07:25:43.863Z,18.30
2018-07-01T07:28:12.458Z,18.60
2018-07-01T07:30:40.939Z,18.80
2018-07-01T07:33:09.490Z,19.10
2018-07-01T07:35:38.322Z,19.40
2018-07-01T07:38:07.007Z,19.40
2018-07-01T07:40:35.562Z,19.70
2018-07-01T07:43:04.818Z,19.90
2018-07-01T07:45:33.387Z,19.90
2018-07-01T07:48:01.976Z,20.30
2018-07-01T07:50:30.966Z,20.50
2018-07-01T07:52:59.446Z,20.40
2018-07-01T07:55:28.005Z,20.60
2018-07-01T07:57:56.485Z,21.00
2018-07-01T08:00:25.035Z,20.90
2018-07-01T08:02:53.528Z,21.20
2018-07-01T08:05:22.339Z,21.40
2018-07-01T08:07:51.498Z,22.10
2018-07-01T08:10:19.966Z,21.70
2018-07-01T08:12:48.635Z,22.00
2018-07-01T08:15:17.107Z,22.70
2018-07-01T08:17:45.650Z,22.10
2018-07-01T08:20:14.603Z,21.70
2018-07-01T08:22:43.181Z,22.70
2018-07-01T08:25:11.643Z,22.60
2018-07-01T08:27:40.211Z,23.30
2018-07-01T08:30:08.753Z,23.00
2018-07-01T08:32:37.263Z,22.70
2018-07-01T08:35:06.033Z,22.10
2018-07-01T08:37:34.497Z,22.60
2018-07-01T08:40:03.164Z,22.30
2018-07-01T08:42:35.445Z,22.00
2018-07-01T08:45:05.479Z,21.50
2018-07-01T08:47:34.567Z,21.70
2018-07-01T08:50:03.497Z,21.40
2018-07-01T08:52:32.094Z,21.00
2018-07-01T08:55:00.622Z,21.80
2018-07-01T08:57:29.563Z,22.70
2018-07-01T08:59:58.089Z,23.00
2018-07-01T09:02:26.846Z,23.50
2018-07-01T09:04:55.461Z,23.40
2018-07-01T09:07:23.967Z,22.50
2018-07-01T09:09:52.486Z,22.80
2018-07-01T09:12:21.027Z,22.10
2018-07-01T09:14:50.190Z,22.80
2018-07-01T09:17:18.906Z,22.50
2018-07-01T09:19:47.510Z,22.00
2018-07-01T09:22:15.996Z,22.60
2018-07-01T09:24:44.531Z,22.70
2018-07-01T09:27:13.072Z,22.70
2018-07-01T09:29:46.897Z,23.30
2018-07-01T09:32:16.235Z,23.60
2018-07-01T09:34:44.937Z,23.10
2018-07-01T09:37:13.457Z,23.60
2018-07-01T09:39:42.054Z,24.10
2018-07-01T09:42:10.738Z,24.60
2018-07-01T09:44:39.385Z,24.60
2018-07-01T09:49:36.842Z,25.60
2018-07-01T09:52:05.627Z,24.80
2018-07-01T09:54:34.245Z,24.10
2018-07-01T09:57:02.909Z,24.40
2018-07-01T09:59:31.627Z,23.80
2018-07-01T10:02:00.603Z,23.20
2018-07-01T10:04:29.280Z,23.40
2018-07-01T10:06:57.877Z,23.40
2018-07-01T10:09:26.579Z,23.70
2018-07-01T10:11:55.634Z,23.30
2018-07-01T10:14:24.276Z,22.90
2018-07-01T10:16:52.871Z,22.60
2018-07-01T10:19:21.506Z,23.50
2018-07-01T10:21:50.106Z,23.50
2018-07-01T10:24:18.669Z,24.30
2018-07-01T10:26:47.454Z,24.40
2018-07-01T10:29:16.685Z,24.20
2018-07-01T10:31:46.827Z,24.20
2018-07-01T10:34:15.970Z,23.40
2018-07-01T10:36:44.663Z,23.80
2018-07-01T10:39:15.807Z,23.20
2018-07-01T10:41:44.432Z,24.00
2018-07-01T10:44:13.082Z,23.10
2018-07-01T10:46:41.706Z,23.70
2018-07-01T10:49:10.623Z,23.20
2018-07-01T10:51:39.225Z,23.50
2018-07-01T10:54:07.877Z,23.30
2018-07-01T10:56:36.512Z,23.90
2018-07-01T10:59:06.041Z,23.00
2018-07-01T11:01:34.738Z,23.20
2018-07-01T11:04:03.384Z,23.00
2018-07-01T11:06:31.994Z,23.80
2018-07-01T11:09:01.117Z,24.10
2018-07-01T11:11:29.821Z,24.40
2018-07-01T11:13:58.453Z,25.20
2018-07-01T11:16:27.611Z,25.10
2018-07-01T11:18:56.466Z,24.60
2018-07-01T11:21:25.067Z,24.20
2018-07-01T11:23:53.577Z,23.60
2018-07-01T11:26:22.715Z,23.70
2018-07-01T11:28:51.169Z,23.80
2018-07-01T11:31:19.614Z,24.50
2018-07-01T11:33:48.152Z,23.70
2018-07-01T11:36:16.952Z,24.50
2018-07-01T11:38:45.450Z,25.20
2018-07-01T11:41:14.092Z,25.60
2018-07-01T11:43:42.607Z,25.80
2018-07-01T11:46:11.186Z,25.80
2018-07-01T11:48:39.679Z,26.10
2018-07-01T11:51:08.200Z,26.80
2018-07-01T11:53:36.727Z,25.80
2018-07-01T11:58:34.483Z,26.00
2018-07-01T12:01:03.101Z,26.70
2018-07-01T12:03:31.574Z,26.90
2018-07-01T12:06:00.212Z,25.20
2018-07-01T12:08:28.724Z,25.20
2018-07-01T12:10:57.404Z,24.70
2018-07-01T12:13:26.075Z,24.10
2018-07-01T12:15:54.838Z,25.70
2018-07-01T12:18:24.068Z,26.50
2018-07-01T12:20:52.593Z,26.10
2018-07-01T12:23:21.760Z,25.50
2018-07-01T12:25:50.230Z,25.90
2018-07-01T12:28:18.935Z,25.40
2018-07-01T12:30:47.439Z,26.00
2018-07-01T12:33:16.211Z,25.20
2018-07-01T12:35:44.809Z,24.80
2018-07-01T12:38:14.004Z,25.20
2018-07-01T12:40:42.729Z,25.00
2018-07-01T12:43:11.400Z,25.00
2018-07-01T12:45:40.033Z,25.70
2018-07-01T12:48:08.568Z,25.80
2018-07-01T12:50:37.151Z,25.90
2018-07-01T12:53:05.708Z,26.70
2018-07-01T12:55:34.276Z,26.50
2018-07-01T12:58:02.816Z,25.80
2018-07-01T13:00:31.499Z,25.20
2018-07-01T13:03:00.049Z,24.50
2018-07-01T13:05:28.668Z,24.70
2018-07-01T13:07:57.276Z,24.60
2018-07-01T13:10:25.812Z,24.40
2018-07-01T13:12:54.402Z,24.10
2018-07-01T13:15:22.947Z,23.60
2018-07-01T13:17:51.693Z,23.40
2018-07-01T13:20:20.321Z,23.50
2018-07-01T13:22:48.859Z,24.10
2018-07-01T13:25:17.432Z,24.40
2018-07-01T13:27:45.948Z,24.40
2018-07-01T13:30:14.503Z,24.30
2018-07-01T13:32:43.010Z,24.40
2018-07-01T13:35:11.735Z,24.30
2018-07-01T13:37:40.378Z,24.00
2018-07-01T13:40:08.972Z,23.80
2018-07-01T13:42:37.703Z,23.70
2018-07-01T13:45:07.568Z,23.70
2018-07-01T13:47:36.182Z,24.50
2018-07-01T13:52:47.783Z,25.40
2018-07-01T13:55:16.369Z,25.80
2018-07-01T13:57:46.014Z,25.90
2018-07-01T14:00:14.679Z,25.20
2018-07-01T14:02:43.336Z,24.80
2018-07-01T14:05:12.877Z,25.40
2018-07-01T14:07:41.471Z,25.50
2018-07-01T14:10:11.928Z,26.20
2018-07-01T14:12:40.847Z,25.30
2018-07-01T14:15:09.438Z,24.80
2018-07-01T14:17:38.065Z,24.00
2018-07-01T14:20:09.309Z,24.00
2018-07-01T14:22:39.275Z,24.00
2018-07-01T14:25:09.061Z,24.00
2018-07-01T14:27:38.092Z,23.50
2018-07-01T14:30:07.684Z,23.40
2018-07-01T14:32:36.506Z,23.00
2018-07-01T14:35:05.186Z,23.40
2018-07-01T14:37:33.830Z,23.70
2018-07-01T14:40:02.534Z,24.80
2018-07-01T14:42:32.557Z,25.10
2018-07-01T14:45:01.493Z,25.70
2018-07-01T14:47:30.127Z,24.90
2018-07-01T14:49:58.719Z,25.30
2018-07-01T14:52:27.373Z,24.90
2018-07-01T14:54:56.130Z,24.50
2018-07-01T14:57:24.920Z,24.40
2018-07-01T14:59:53.532Z,24.70
2018-07-01T15:02:22.117Z,25.70
2018-07-01T15:04:57.337Z,25.10
2018-07-01T15:07:26.272Z,24.80
2018-07-01T15:09:55.282Z,24.40
2018-07-01T15:12:23.914Z,24.00
2018-07-01T15:14:52.644Z,23.70
2018-07-01T15:19:49.926Z,24.50
2018-07-01T15:22:18.601Z,24.70
2018-07-01T15:24:47.564Z,24.60
2018-07-01T15:27:16.243Z,24.60
2018-07-01T15:29:44.854Z,24.80
2018-07-01T15:32:14.310Z,24.70
2018-07-01T15:34:42.999Z,24.90
2018-07-01T15:37:12.041Z,25.00
2018-07-01T15:39:40.752Z,24.50
2018-07-01T15:42:09.457Z,24.50
2018-07-01T15:44:38.007Z,24.90
2018-07-01T15:47:10.118Z,25.20
2018-07-01T15:49:40.305Z,24.10
2018-07-01T15:52:08.947Z,24.00
2018-07-01T15:54:37.543Z,23.90
2018-07-01T15:57:06.919Z,23.40
2018-07-01T15:59:35.596Z,23.00
2018-07-01T16:02:04.254Z,23.20
2018-07-01T16:04:35.007Z,23.00
2018-07-01T16:07:03.716Z,22.70
2018-07-01T16:09:32.329Z,22.90
2018-07-01T16:12:00.910Z,22.50
2018-07-01T16:14:29.903Z,22.40
2018-07-01T16:16:58.683Z,22.30
2018-07-01T16:19:27.292Z,22.20
2018-07-01T16:21:55.929Z,22.20
2018-07-01T16:24:24.495Z,22.30
2018-07-01T16:26:57.440Z,22.00
2018-07-01T16:29:26.130Z,21.90
2018-07-01T16:31:54.923Z,22.00
2018-07-01T16:34:25.993Z,21.90
2018-07-01T16:36:55.498Z,21.50
2018-07-01T16:39:24.334Z,21.40
2018-07-01T16:41:53.004Z,21.20
2018-07-01T16:44:22.281Z,21.20
2018-07-01T16:46:50.848Z,21.10
2018-07-01T16:49:19.749Z,21.00
2018-07-01T16:51:48.223Z,20.80
2018-07-01T16:54:16.842Z,20.80
2018-07-01T16:56:45.679Z,20.90
2018-07-01T16:59:15.397Z,20.80
2018-07-01T17:01:44.245Z,20.80
2018-07-01T17:04:13.136Z,20.50
2018-07-01T17:06:42.455Z,20.50
2018-07-01T17:09:11.996Z,20.30
2018-07-01T17:11:41.014Z,20.40
2018-07-01T17:14:09.664Z,20.30
2018-07-01T17:16:39.945Z,20.30
2018-07-01T17:19:08.579Z,20.40
2018-07-01T17:21:37.061Z,20.10
2018-07-01T17:24:05.692Z,20.20
2018-07-01T17:26:34.261Z,19.90
2018-07-01T17:29:02.778Z,19.70
2018-07-01T17:31:36.970Z,19.60
2018-07-01T17:34:05.844Z,19.60
2018-07-01T17:36:34.363Z,19.50
2018-07-01T17:39:03.140Z,19.40
2018-07-01T17:41:31.747Z,19.30
2018-07-01T17:44:00.303Z,19.40
2018-07-01T17:46:28.827Z,19.30
2018-07-01T17:48:57.389Z,19.20
2018-07-01T17:51:25.964Z,19.10
2018-07-01T17:53:56.624Z,19.10
2018-07-01T17:56:25.751Z,18.90
2018-07-01T17:58:55.322Z,18.90
2018-07-01T18:01:26.193Z,18.80
2018-07-01T18:03:54.699Z,18.70
2018-07-01T18:06:23.301Z,18.70
2018-07-01T18:08:52.028Z,18.60
2018-07-01T18:11:20.565Z,18.50
2018-07-01T18:13:49.183Z,18.50
2018-07-01T18:16:18.149Z,18.40
2018-07-01T18:18:46.619Z,18.20
2018-07-01T18:21:20.254Z,18.20
2018-07-01T18:24:19.492Z,18.10
2018-07-01T18:26:17.069Z,18.00
2018-07-01T18:28:55.768Z,18.00
2018-07-01T18:33:42.872Z,17.90
2018-07-01T18:36:12.396Z,17.80
2018-07-01T18:38:40.984Z,17.70
2018-07-01T18:41:09.663Z,17.70
2018-07-01T18:43:38.341Z,17.60
2018-07-01T18:46:07.434Z,17.50
2018-07-01T18:48:36.072Z,17.50
2018-07-01T18:51:04.848Z,17.40
2018-07-01T18:53:35.455Z,17.40
2018-07-01T18:56:04.045Z,17.30
2018-07-01T18:58:32.578Z,17.20
2018-07-01T19:01:01.412Z,17.20
2018-07-01T19:03:30.311Z,17.10
2018-07-01T19:05:59.411Z,16.90
2018-07-01T19:08:27.981Z,16.90
2018-07-01T19:10:56.543Z,16.80
2018-07-01T19:13:25.089Z,16.70
2018-07-01T19:15:53.633Z,16.70
2018-07-01T19:18:22.246Z,16.70
2018-07-01T19:20:51.143Z,16.60
2018-07-01T19:23:19.634Z,16.40
2018-07-01T19:25:48.167Z,16.40
2018-07-01T19:28:16.886Z,16.40
2018-07-01T19:30:45.394Z,16.30
2018-07-01T19:33:13.993Z,16.20
2018-07-01T19:35:42.576Z,16.10
2018-07-01T19:38:11.249Z,16.00
2018-07-01T19:40:40.221Z,16.00
2018-07-01T19:43:08.845Z,15.90
2018-07-01T19:45:37.380Z,15.80
2018-07-01T19:48:06.261Z,15.70
2018-07-01T19:50:34.780Z,15.60
2018-07-01T19:53:03.415Z,15.60
2018-07-01T19:55:31.999Z,15.50
2018-07-01T19:58:00.531Z,15.40
2018-07-01T20:00:29.261Z,15.40
2018-07-01T20:02:58.523Z,15.40
2018-07-01T20:05:27.174Z,15.40
2018-07-01T20:07:55.703Z,15.30
2018-07-01T20:10:24.338Z,15.20
2018-07-01T20:12:52.969Z,15.20
2018-07-01T20:15:22.499Z,15.10
2018-07-01T20:17:51.017Z,15.10
2018-07-01T20:20:19.609Z,15.00
2018-07-01T20:22:48.301Z,15.00
2018-07-01T20:25:16.858Z,14.90
2018-07-01T20:27:45.659Z,14.90
2018-07-01T20:30:14.172Z,14.80
2018-07-01T20:32:42.815Z,14.70
2018-07-01T20:35:11.421Z,14.60
2018-07-01T20:37:40.004Z,14.60
2018-07-01T20:42:42.413Z,14.40
2018-07-01T20:45:10.985Z,14.40
2018-07-01T20:47:39.549Z,14.30
2018-07-01T20:50:08.090Z,14.30
2018-07-01T20:52:36.623Z,14.30
2018-07-01T20:55:05.530Z,14.20
2018-07-01T20:57:34.079Z,14.20
2018-07-01T21:00:02.660Z,14.10
2018-07-01T21:02:31.213Z,14.00
2018-07-01T21:05:00.005Z,14.00
2018-07-01T21:07:28.493Z,13.90
2018-07-01T21:09:57.038Z,13.90
2018-07-01T21:12:25.585Z,13.80
2018-07-01T21:14:54.157Z,13.70
2018-07-01T21:17:23.121Z,13.60
2018-07-01T21:19:52.483Z,13.60
2018-07-01T21:22:21.031Z,13.50
2018-07-01T21:24:49.533Z,13.40
2018-07-01T21:27:18.618Z,13.30
2018-07-01T21:29:47.235Z,13.30
2018-07-01T21:32:15.790Z,13.20
2018-07-01T21:34:44.594Z,13.10
2018-07-01T21:37:13.102Z,13.00
2018-07-01T21:39:41.612Z,13.00
2018-07-01T21:42:10.184Z,13.00
2018-07-01T21:44:38.703Z,12.90
2018-07-01T21:47:07.863Z,12.90
2018-07-01T21:49:36.532Z,12.80
2018-07-01T21:52:05.167Z,12.70
2018-07-01T21:54:33.780Z,12.60
2018-07-01T21:57:02.248Z,12.60
2018-07-01T21:59:30.798Z,12.50
2018-07-01T22:01:59.467Z,12.40
2018-07-01T22:04:28.100Z,12.40
2018-07-01T22:07:00.634Z,12.30
2018-07-01T22:09:30.269Z,12.30
2018-07-01T22:12:10.395Z,12.30
2018-07-01T22:14:50.203Z,12.20
2018-07-01T22:17:18.792Z,12.10
2018-07-01T22:19:47.334Z,12.00
2018-07-01T22:22:15.872Z,11.90
2018-07-01T22:24:44.443Z,11.80
2018-07-01T22:27:12.984Z,11.70
2018-07-01T22:29:41.598Z,11.60
2018-07-01T22:32:10.176Z,11.60
2018-07-01T22:34:38.708Z,11.60
2018-07-01T22:37:07.260Z,11.50
2018-07-01T22:39:36.044Z,11.50
2018-07-01T22:42:04.594Z,11.40
2018-07-01T22:44:33.232Z,11.40
2018-07-01T22:47:01.801Z,11.40
2018-07-01T22:49:30.362Z,11.40
2018-07-01T22:51:58.884Z,11.30
2018-07-01T22:54:27.480Z,11.30
2018-07-01T22:56:56.123Z,11.20
2018-07-01T22:59:24.641Z,11.20
2018-07-01T23:03:07.202Z,11.10
2018-07-01T23:05:35.741Z,11.10
2018-07-01T23:08:04.482Z,10.90
2018-07-01T23:10:34.026Z,10.90
2018-07-01T23:13:03.387Z,10.80
2018-07-01T23:15:32.531Z,10.80
2018-07-01T23:18:01.244Z,10.70
2018-07-01T23:20:29.854Z,10.70
2018-07-01T23:22:58.395Z,10.60
2018-07-01T23:25:27.806Z,10.60
2018-07-01T23:30:24.637Z,10.40
2018-07-01T23:32:53.244Z,10.40
2018-07-01T23:35:22.166Z,10.40
2018-07-01T23:37:50.739Z,10.30
2018-07-01T23:40:19.346Z,10.30
2018-07-01T23:42:47.891Z,10.40
2018-07-01T23:45:16.895Z,10.30
2018-07-01T23:47:45.507Z,10.20
2018-07-01T23:50:14.101Z,10.10
2018-07-01T23:52:42.673Z,10.10
2018-07-01T23:55:12.783Z,10.10
2018-07-01T23:57:41.673Z,10.00
